createdAt,value
2022-11-20T00:01:30.307Z,5.25
2022-11-20T00:03:59.001Z,6.10
2022-11-20T00:06:26.921Z,7.35
2022-11-20T00:08:56.442Z,5.60
2022-11-20T00:11:25.083Z,6.32
2022-11-20T00:13:55.090Z,8.77
2022-11-20T00:16:24.797Z,6.03
2022-11-20T00:18:52.453Z,8.07
2022-11-20T00:21:27.428Z,7.45
2022-11-20T00:23:56.095Z,12.63
2022-11-20T00:26:24.099Z,7.35
2022-11-20T00:28:56.219Z,5.97
2022-11-20T00:31:23.528Z,15.38
2022-11-20T00:33:50.755Z,6.68
2022-11-20T00:36:22.885Z,6.72
2022-11-20T00:38:56.905Z,7.75
2022-11-20T00:41:25.092Z,8.63
2022-11-20T00:43:56.704Z,6.75
2022-11-20T00:46:25.419Z,3.78
2022-11-20T00:48:52.794Z,7.72
2022-11-20T00:51:21.616Z,5.43
2022-11-20T00:53:48.371Z,10.45
2022-11-20T00:56:17.493Z,4.88
2022-11-20T00:58:47.103Z,12.30
2022-11-20T01:01:23.496Z,8.13
2022-11-20T01:03:52.174Z,6.95
2022-11-20T01:06:45.209Z,11.10
2022-11-20T01:09:15.658Z,7.82
2022-11-20T01:11:45.255Z,6.75
2022-11-20T01:14:15.685Z,9.82
2022-11-20T01:16:45.461Z,7.63
2022-11-20T01:19:17.906Z,7.15
2022-11-20T01:21:49.805Z,6.57
2022-11-20T01:24:17.931Z,5.32
2022-11-20T01:26:46.649Z,7.88
2022-11-20T01:29:20.284Z,8.00
2022-11-20T01:31:47.199Z,5.22
2022-11-20T01:34:16.132Z,4.95
2022-11-20T01:36:43.919Z,5.90
2022-11-20T01:39:15.652Z,6.78
2022-11-20T01:42:05.679Z,6.53
2022-11-20T01:44:55.356Z,10.48
2022-11-20T01:47:40.260Z,7.40
2022-11-20T01:50:15.632Z,4.82
2022-11-20T01:52:48.447Z,6.97
2022-11-20T01:55:22.314Z,9.20
2022-11-20T01:57:50.116Z,7.57
2022-11-20T02:00:18.995Z,6.60
2022-11-20T02:02:52.725Z,9.63
2022-11-20T02:05:28.182Z,4.90
2022-11-20T02:07:57.200Z,6.68
2022-11-20T02:31:49.004Z,6.38
2022-11-20T02:34:15.686Z,12.63
2022-11-20T02:36:43.251Z,7.25
2022-11-20T02:39:13.402Z,4.75
2022-11-20T02:41:40.397Z,5.22
2022-11-20T02:44:07.381Z,4.13
2022-11-20T02:46:34.765Z,5.80
2022-11-20T02:49:05.477Z,5.45
2022-11-20T02:51:33.430Z,5.40
2022-11-20T02:54:00.228Z,7.05
2022-11-20T02:56:27.111Z,7.32
2022-11-20T02:58:53.863Z,5.60
2022-11-20T03:01:20.662Z,4.72
2022-11-20T03:03:49.552Z,3.90
2022-11-20T03:06:17.763Z,9.50
2022-11-20T03:08:44.896Z,5.03
2022-11-20T03:32:41.009Z,3.47
2022-11-20T03:35:09.304Z,4.18
2022-11-20T03:42:52.631Z,6.53
2022-11-20T03:45:20.025Z,4.55
2022-11-20T03:47:47.156Z,9.63
2022-11-20T04:49:41.100Z,4.35
2022-11-20T04:52:07.776Z,4.93
2022-11-20T04:54:34.387Z,4.53
2022-11-20T04:57:01.264Z,3.78
2022-11-20T04:59:27.896Z,5.97
2022-11-20T05:01:54.708Z,4.97
2022-11-20T05:04:21.555Z,4.97
2022-11-20T05:06:48.252Z,5.45
2022-11-20T05:09:15.086Z,5.15
2022-11-20T05:11:41.922Z,3.10
2022-11-20T05:14:08.655Z,4.38
2022-11-20T05:16:36.617Z,4.45
2022-11-20T05:19:03.625Z,2.60
2022-11-20T05:21:32.174Z,3.50
2022-11-20T05:23:58.887Z,4.80
2022-11-20T05:26:25.793Z,4.70
2022-11-20T05:28:52.969Z,3.65
2022-11-20T07:51:36.335Z,3.58
2022-11-20T07:54:03.133Z,4.22
2022-11-20T07:56:29.787Z,4.38
2022-11-20T07:58:56.627Z,4.88
2022-11-20T08:01:23.493Z,3.72
2022-11-20T08:03:50.170Z,6.05
2022-11-20T08:06:16.976Z,4.80
2022-11-20T08:08:43.659Z,3.17
2022-11-20T08:21:49.245Z,4.07
2022-11-20T08:24:16.647Z,7.28
2022-11-20T08:26:43.876Z,2.80
2022-11-20T08:29:10.700Z,4.38
2022-11-20T08:31:37.482Z,2.85
2022-11-20T08:34:09.010Z,3.28
2022-11-20T08:36:36.988Z,3.72
2022-11-20T08:39:04.447Z,5.60
2022-11-20T08:41:34.220Z,3.35
2022-11-20T08:44:07.802Z,3.20
2022-11-20T08:46:39.718Z,3.42
2022-11-20T08:49:08.152Z,5.75
2022-11-20T09:40:59.281Z,6.35
2022-11-20T10:32:39.970Z,28.55
2022-11-20T10:35:34.620Z,22.80
2022-11-20T10:38:04.071Z,25.50
2022-11-20T10:40:46.749Z,17.77
2022-11-20T10:43:15.756Z,23.23
2022-11-20T10:45:57.248Z,28.77
2022-11-20T10:48:26.607Z,24.10
2022-11-20T10:51:27.194Z,26.67
2022-11-20T10:54:02.854Z,24.63
2022-11-20T10:56:36.679Z,25.27
2022-11-20T10:59:25.152Z,24.30
2022-11-20T11:01:51.782Z,26.30
2022-11-20T11:04:41.818Z,22.90
2022-11-20T11:07:16.509Z,18.08
2022-11-20T11:09:55.218Z,25.92
2022-11-20T11:25:59.531Z,29.60
2022-11-20T11:28:28.465Z,22.00
2022-11-20T12:11:19.091Z,33.70
2022-11-20T12:14:38.806Z,33.08
2022-11-20T12:17:06.350Z,33.42
2022-11-20T12:19:35.868Z,32.22
2022-11-20T12:22:08.412Z,33.53
2022-11-20T12:24:47.713Z,29.20
2022-11-20T12:27:41.977Z,30.98
2022-11-20T12:30:14.651Z,30.42
2022-11-20T12:33:10.519Z,26.40
2022-11-20T12:36:11.275Z,27.60
2022-11-20T12:38:55.504Z,27.23
2022-11-20T12:41:46.875Z,22.95
2022-11-20T12:45:03.772Z,25.90
2022-11-20T12:47:33.473Z,26.20
2022-11-20T12:52:58.930Z,25.05
2022-11-20T12:55:50.182Z,29.95
2022-11-20T12:58:42.163Z,32.33
2022-11-20T13:01:53.772Z,24.27
2022-11-20T13:04:39.231Z,9.55
2022-11-20T13:07:15.588Z,10.43
2022-11-20T13:09:47.158Z,9.73
2022-11-20T13:17:55.698Z,9.05
2022-11-20T13:20:22.523Z,8.95
2022-11-20T13:22:53.443Z,10.30
2022-11-20T13:25:40.518Z,10.32
2022-11-20T13:28:10.297Z,10.25
2022-11-20T13:30:38.593Z,10.68
2022-11-20T13:33:10.349Z,14.35
2022-11-20T13:35:42.022Z,9.18
2022-11-20T13:38:14.792Z,9.50
2022-11-20T13:40:58.195Z,12.05
2022-11-20T13:43:27.697Z,17.02
2022-11-20T13:45:57.405Z,25.15
2022-11-20T13:48:48.217Z,23.73
2022-11-20T13:51:33.462Z,24.92
2022-11-20T13:54:24.013Z,26.55
2022-11-20T13:57:20.368Z,28.10
2022-11-20T13:59:59.236Z,30.25
2022-11-20T14:02:31.069Z,25.75
2022-11-20T14:05:02.680Z,30.90
2022-11-20T14:07:43.794Z,27.80
2022-11-20T14:10:31.321Z,28.02
2022-11-20T14:12:58.851Z,28.23
2022-11-20T14:15:34.677Z,27.67
2022-11-20T14:18:16.063Z,27.50
2022-11-20T14:20:44.078Z,26.25
2022-11-20T14:23:11.818Z,30.02
2022-11-20T14:25:42.858Z,26.60
2022-11-20T14:28:24.675Z,27.48
2022-11-20T14:30:51.650Z,28.20
2022-11-20T14:33:18.563Z,22.45
2022-11-20T14:35:48.168Z,26.27
2022-11-20T14:38:18.100Z,27.75
2022-11-20T14:40:45.059Z,32.42
2022-11-20T14:43:28.261Z,29.65
2022-11-20T14:46:02.447Z,25.05
2022-11-20T14:48:35.324Z,26.13
2022-11-20T14:51:02.046Z,25.95
2022-11-20T14:53:28.687Z,23.27
2022-11-20T14:55:59.142Z,28.13
2022-11-20T14:58:30.977Z,35.92
2022-11-20T15:01:21.329Z,24.70
2022-11-20T15:04:00.237Z,22.08
2022-11-20T15:06:28.167Z,27.48
2022-11-20T15:08:55.339Z,26.83
2022-11-20T15:11:35.806Z,25.48
2022-11-20T15:14:05.817Z,28.05
2022-11-20T15:21:50.035Z,27.85
2022-11-20T15:24:17.129Z,25.88
2022-11-20T15:26:44.140Z,32.00
2022-11-20T15:29:19.688Z,31.88
2022-11-20T15:31:46.425Z,27.73
2022-11-20T15:34:14.465Z,22.67
2022-11-20T15:36:41.359Z,31.00
2022-11-20T15:39:08.700Z,27.02
2022-11-20T15:41:36.125Z,31.27
2022-11-20T15:44:03.924Z,23.65
2022-11-20T15:46:39.235Z,25.45
2022-11-20T15:49:07.010Z,25.60
2022-11-20T15:51:42.604Z,27.95
2022-11-20T15:54:13.585Z,33.35
2022-11-20T15:56:40.246Z,27.65
2022-11-20T15:59:06.899Z,32.25
2022-11-20T16:01:33.732Z,32.78
2022-11-20T16:04:01.326Z,33.28
2022-11-20T16:06:28.472Z,31.60
2022-11-20T16:08:57.971Z,28.70
2022-11-20T16:11:26.378Z,26.63
2022-11-20T16:14:11.942Z,25.98
2022-11-20T16:16:40.342Z,24.17
2022-11-20T16:19:07.706Z,23.25
2022-11-20T16:21:47.553Z,23.52
2022-11-20T16:24:18.438Z,18.90
2022-11-20T16:26:50.059Z,18.10
2022-11-20T16:29:16.765Z,23.10
2022-11-20T16:31:43.415Z,22.65
2022-11-20T16:34:12.664Z,29.38
2022-11-20T16:36:44.699Z,24.63
2022-11-20T16:39:12.560Z,26.70
2022-11-20T16:41:39.643Z,23.65
2022-11-20T16:44:12.740Z,20.23
2022-11-20T16:46:41.438Z,27.27
2022-11-20T16:49:13.166Z,21.77
2022-11-20T16:51:47.439Z,18.35
2022-11-20T16:54:19.459Z,23.88
2022-11-20T16:56:48.445Z,21.90
2022-11-20T16:59:15.246Z,20.52
2022-11-20T17:01:46.322Z,19.50
2022-11-20T17:04:13.505Z,22.45
2022-11-20T17:06:44.456Z,25.05
2022-11-20T17:09:11.773Z,20.17
2022-11-20T17:11:38.612Z,27.42
2022-11-20T17:14:07.602Z,24.17
2022-11-20T17:16:36.230Z,22.52
2022-11-20T17:19:05.340Z,19.73
2022-11-20T17:21:36.222Z,24.20
2022-11-20T17:24:05.150Z,22.92
2022-11-20T17:26:32.386Z,16.30
2022-11-20T17:29:07.765Z,16.02
2022-11-20T17:31:38.875Z,18.92
2022-11-20T17:34:11.151Z,20.20
2022-11-20T17:36:45.469Z,17.50
2022-11-20T17:39:16.885Z,23.35
2022-11-20T17:41:43.867Z,14.18
2022-11-20T17:44:11.906Z,19.00
2022-11-20T17:46:39.010Z,17.13
2022-11-20T17:49:05.744Z,16.65
2022-11-20T17:51:35.146Z,18.27
2022-11-20T17:54:04.822Z,19.58
2022-11-20T17:56:54.332Z,22.20
2022-11-20T17:59:21.922Z,19.52
2022-11-20T18:01:51.793Z,18.23
2022-11-20T18:04:18.543Z,20.35
2022-11-20T18:06:52.592Z,21.63
2022-11-20T18:11:54.597Z,20.77
2022-11-20T18:17:07.563Z,19.80
2022-11-20T18:19:42.620Z,16.02
2022-11-20T18:30:20.839Z,21.27
2022-11-20T18:32:47.601Z,18.10
2022-11-20T18:37:49.546Z,17.27
2022-11-20T18:40:18.010Z,16.55
2022-11-20T18:43:03.834Z,23.17
2022-11-20T18:45:30.758Z,19.83
2022-11-20T18:47:57.628Z,21.60
2022-11-20T18:50:24.455Z,23.98
2022-11-20T18:52:51.273Z,17.55
2022-11-20T18:55:18.015Z,21.70
2022-11-20T18:57:45.167Z,17.52
2022-11-20T19:00:12.481Z,19.75
2022-11-20T19:02:42.502Z,19.77
2022-11-20T19:05:14.535Z,19.23
2022-11-20T19:07:43.377Z,18.15
2022-11-20T19:10:10.538Z,24.27
2022-11-20T19:12:37.534Z,22.70
2022-11-20T19:15:05.117Z,16.42
2022-11-20T19:17:33.398Z,22.02
2022-11-20T19:20:00.371Z,16.77
2022-11-20T19:22:27.068Z,19.50
2022-11-20T19:24:53.704Z,29.20
2022-11-20T19:27:20.382Z,22.45
2022-11-20T19:29:47.022Z,19.33
2022-11-20T19:32:13.651Z,20.35
2022-11-20T19:34:40.511Z,20.45
2022-11-20T19:37:07.247Z,21.42
2022-11-20T19:39:35.641Z,22.15
2022-11-20T19:42:02.773Z,24.65
2022-11-20T19:44:29.456Z,22.83
2022-11-20T19:46:57.441Z,18.60
2022-11-20T19:49:24.255Z,20.42
2022-11-20T19:51:51.348Z,19.67
2022-11-20T19:54:18.218Z,19.98
2022-11-20T19:56:50.013Z,22.13
2022-11-20T19:59:16.818Z,27.27
2022-11-20T20:01:47.372Z,20.55
2022-11-20T20:04:14.177Z,18.77
2022-11-20T20:06:42.160Z,21.25
2022-11-20T20:09:12.266Z,23.17
2022-11-20T20:11:39.993Z,18.20
2022-11-20T20:14:14.655Z,16.83
2022-11-20T20:16:42.954Z,17.13
2022-11-20T20:19:17.582Z,16.20
2022-11-20T20:21:44.715Z,16.58
2022-11-20T20:24:12.062Z,16.63
2022-11-20T20:26:38.910Z,18.50
2022-11-20T20:29:05.544Z,19.63
2022-11-20T20:31:36.224Z,16.73
2022-11-20T20:34:05.569Z,16.95
2022-11-20T20:36:33.127Z,14.73
2022-11-20T20:39:01.185Z,16.33
2022-11-20T20:41:28.033Z,19.73
2022-11-20T20:44:13.397Z,14.10
2022-11-20T20:46:41.528Z,18.60
2022-11-20T20:49:09.120Z,18.35
2022-11-20T20:51:36.629Z,19.17
2022-11-20T20:54:04.206Z,16.50
2022-11-20T20:56:30.828Z,20.15
2022-11-20T20:58:57.734Z,24.40
2022-11-20T21:01:29.062Z,15.95
2022-11-20T21:03:56.965Z,19.05
2022-11-20T21:06:24.328Z,14.55
2022-11-20T21:08:51.471Z,17.55
2022-11-20T21:11:20.193Z,20.67
2022-11-20T21:13:48.099Z,21.08
2022-11-20T21:16:17.499Z,17.10
2022-11-20T21:18:44.299Z,18.85
2022-11-20T21:21:32.764Z,17.23
2022-11-20T21:23:59.667Z,20.73
2022-11-20T21:26:26.462Z,16.75
2022-11-20T21:28:53.531Z,20.77
2022-11-20T21:31:25.119Z,20.35
2022-11-20T21:33:53.206Z,20.20
2022-11-20T21:36:24.639Z,21.33
2022-11-20T21:38:52.833Z,20.48
2022-11-20T21:41:19.729Z,19.35
2022-11-20T21:43:51.596Z,16.85
2022-11-20T21:46:25.779Z,16.83
2022-11-20T21:48:53.477Z,18.25
2022-11-20T21:51:22.771Z,19.38
2022-11-20T21:53:50.955Z,15.02
2022-11-20T21:56:20.823Z,20.15
2022-11-20T21:58:48.700Z,19.83
2022-11-20T22:01:17.547Z,22.80
2022-11-20T22:03:49.249Z,19.95
2022-11-20T22:06:16.949Z,17.23
2022-11-20T22:08:44.415Z,19.63
2022-11-20T22:11:13.961Z,16.63
2022-11-20T22:13:59.548Z,21.83
2022-11-20T22:16:26.834Z,14.10
2022-11-20T22:18:55.557Z,13.32
2022-11-20T22:21:24.712Z,16.55
2022-11-20T22:23:52.273Z,15.77
2022-11-20T22:26:23.016Z,18.55
2022-11-20T22:28:51.480Z,15.25
2022-11-20T22:31:22.100Z,17.13
2022-11-20T22:33:49.066Z,13.52
2022-11-20T22:36:25.147Z,21.60
2022-11-20T22:38:52.169Z,16.70
2022-11-20T22:41:21.171Z,16.58
2022-11-20T22:43:47.956Z,18.23
2022-11-20T22:46:17.416Z,12.68
2022-11-20T22:48:57.585Z,13.90
2022-11-20T22:51:27.239Z,15.70
2022-11-20T22:53:54.309Z,16.75
2022-11-20T22:56:22.002Z,15.88
2022-11-20T22:58:51.144Z,17.45
2022-11-20T23:01:18.870Z,19.55
2022-11-20T23:03:48.448Z,16.20
2022-11-20T23:06:16.552Z,17.48
2022-11-20T23:08:43.603Z,21.60
2022-11-20T23:11:13.854Z,16.50
2022-11-20T23:13:41.374Z,18.05
2022-11-20T23:16:09.484Z,18.27
2022-11-20T23:18:36.950Z,18.13
2022-11-20T23:21:08.677Z,21.45
2022-11-20T23:23:35.537Z,21.02
2022-11-20T23:26:12.851Z,16.00
2022-11-20T23:28:40.721Z,20.05
2022-11-20T23:31:07.872Z,18.10
2022-11-20T23:33:39.553Z,23.95
2022-11-20T23:36:07.010Z,19.10
2022-11-20T23:38:34.586Z,24.05
2022-11-20T23:41:01.852Z,19.77
2022-11-20T23:43:28.978Z,20.88
2022-11-20T23:45:57.786Z,20.08
2022-11-20T23:48:26.523Z,20.10
2022-11-20T23:50:53.311Z,21.25
2022-11-20T23:53:21.031Z,21.25
2022-11-20T23:55:50.108Z,20.23
2022-11-20T23:58:17.470Z,23.10
